Time;durP1;ratioP1;P1;durP2;ratioP2;P2;SDS_P1;SDS_P2;PMS_P1;PMS_P2;Temp;Humidity;BMP_temperature;BMP_pressure;BME280_temperature;BME280_humidity;BME280_pressure;Samples;Min_cycle;Max_cycle;Signal;HPM_P1;HPM_P2
2023/03/21 00:01:53;;;;;;;69.43;61.90;;;4.70;99.90;;;;;;5187412;28;20045;-72
2023/03/21 00:04:25;;;;;;;68.47;61.22;;;5.00;99.90;;;;;;5205325;28;20030;-72
2023/03/21 00:06:56;;;;;;;65.55;58.45;;;4.80;99.90;;;;;;5205460;28;20076;-72
2023/03/21 00:09:27;;;;;;;66.90;59.67;;;4.80;99.90;;;;;;5205333;28;20061;-72
2023/03/21 00:12:00;;;;;;;68.88;61.60;;;4.30;99.90;;;;;;5205352;28;20100;-72
2023/03/21 00:14:31;;;;;;;67.22;59.50;;;4.60;99.90;;;;;;5205226;28;20106;-70
2023/03/21 00:17:02;;;;;;;69.63;60.90;;;4.80;99.90;;;;;;5205154;28;20108;-72
2023/03/21 00:19:37;;;;;;;68.60;62.10;;;4.60;99.90;;;;;;5206719;28;20036;-71
2023/03/21 00:22:07;;;;;;;66.95;59.75;;;4.50;99.90;;;;;;5208878;28;20022;-71
2023/03/21 00:24:38;;;;;;;69.40;56.88;;;4.50;99.90;;;;;;5208913;28;20053;-71
2023/03/21 00:27:09;;;;;;;64.97;57.53;;;4.20;99.90;;;;;;5208953;28;20116;-71
2023/03/21 00:29:40;;;;;;;64.18;57.25;;;4.30;99.90;;;;;;5208866;28;20412;-71
2023/03/21 00:32:11;;;;;;;62.65;53.63;;;4.20;99.90;;;;;;5208643;28;20097;-72
2023/03/21 00:34:42;;;;;;;59.13;52.92;;;4.30;99.90;;;;;;5208735;28;20034;-71
2023/03/21 00:37:15;;;;;;;64.43;52.38;;;4.50;99.90;;;;;;5208810;28;20083;-71
2023/03/21 00:39:50;;;;;;;62.42;55.90;;;4.30;99.90;;;;;;5208665;28;20033;-71
2023/03/21 00:42:21;;;;;;;64.97;57.53;;;4.30;99.90;;;;;;5220351;28;20044;-71
2023/03/21 00:44:52;;;;;;;63.72;56.90;;;4.30;99.90;;;;;;5229234;28;20021;-71
2023/03/21 00:47:23;;;;;;;71.70;63.03;;;4.30;99.90;;;;;;5229136;28;20381;-71
2023/03/21 00:49:54;;;;;;;70.05;61.42;;;4.10;99.90;;;;;;5229201;28;20017;-71
2023/03/21 00:52:25;;;;;;;61.70;55.03;;;4.40;99.90;;;;;;5229064;28;20017;-71
2023/03/21 00:54:56;;;;;;;64.95;58.10;;;4.30;99.90;;;;;;5210968;28;20021;-72
2023/03/21 00:57:27;;;;;;;66.28;59.35;;;4.30;99.90;;;;;;5228948;28;20515;-72
2023/03/21 00:59:58;;;;;;;68.85;60.33;;;4.20;99.90;;;;;;5228728;28;20029;-71
2023/03/21 01:02:28;;;;;;;70.13;62.63;;;4.10;99.90;;;;;;5228601;28;20045;-71
2023/03/21 01:04:59;;;;;;;66.25;59.22;;;3.60;99.90;;;;;;5211008;28;20056;-72
2023/03/21 01:07:30;;;;;;;69.15;61.92;;;4.10;99.90;;;;;;5228670;28;20025;-71
2023/03/21 01:10:01;;;;;;;65.28;58.05;;;4.10;99.90;;;;;;5228608;28;20066;-72
2023/03/21 01:12:32;;;;;;;72.68;59.03;;;4.30;99.90;;;;;;5228856;28;20025;-72
2023/03/21 01:15:03;;;;;;;65.38;58.28;;;3.90;99.90;;;;;;5228493;28;20477;-71
2023/03/21 01:17:34;;;;;;;64.78;57.78;;;4.00;99.90;;;;;;5210755;28;20480;-71
2023/03/21 01:20:05;;;;;;;65.88;58.83;;;4.00;99.90;;;;;;5228249;28;20124;-71
2023/03/21 01:22:36;;;;;;;66.85;57.80;;;4.10;99.90;;;;;;5228548;28;20021;-70
2023/03/21 01:25:08;;;;;;;63.25;56.53;;;4.10;99.90;;;;;;5228260;28;20082;-72
2023/03/21 01:27:39;;;;;;;73.20;62.75;;;3.90;99.90;;;;;;5228266;28;20017;-70
2023/03/21 01:30:13;;;;;;;66.18;57.58;;;3.90;99.90;;;;;;5210333;28;20388;-72
2023/03/21 01:32:51;;;;;;;64.43;57.33;;;3.80;99.90;;;;;;5228068;28;20025;-72
2023/03/21 01:35:22;;;;;;;67.68;60.05;;;3.80;99.90;;;;;;5228191;28;20040;-72
2023/03/21 01:37:55;;;;;;;71.30;62.15;;;3.90;99.90;;;;;;5228167;28;20021;-72
2023/03/21 01:40:30;;;;;;;73.88;62.67;;;3.70;99.90;;;;;;5227976;28;20040;-73
2023/03/21 01:43:09;;;;;;;71.30;61.58;;;3.50;99.90;;;;;;5228057;28;20175;-72
2023/03/21 01:46:01;;;;;;;75.68;63.50;;;3.40;99.90;;;;;;5227901;28;20025;-72
2023/03/21 01:48:41;;;;;;;67.70;60.35;;;3.70;99.90;;;;;;5227970;28;20043;-72
2023/03/21 01:51:16;;;;;;;76.70;63.05;;;3.70;99.90;;;;;;5227797;28;20033;-72
2023/03/21 01:53:50;;;;;;;81.30;65.68;;;3.40;99.90;;;;;;5227749;28;20025;-72
2023/03/21 01:56:30;;;;;;;71.18;62.67;;;3.50;99.90;;;;;;5227868;28;20086;-73
2023/03/21 01:59:07;;;;;;;65.80;58.53;;;3.70;99.90;;;;;;5228076;28;20024;-72
2023/03/21 02:01:41;;;;;;;64.82;57.63;;;3.70;99.90;;;;;;5227620;28;20047;-72
2023/03/21 02:04:11;;;;;;;67.45;59.88;;;3.60;99.90;;;;;;5227732;28;20397;-72
2023/03/21 02:06:48;;;;;;;68.60;61.10;;;3.50;99.90;;;;;;5227484;28;20024;-71
2023/03/21 02:09:23;;;;;;;71.70;64.20;;;3.60;99.90;;;;;;5227434;28;20094;-72
2023/03/21 02:11:55;;;;;;;66.18;59.25;;;3.50;99.90;;;;;;5209569;28;20025;-72
2023/03/21 02:14:27;;;;;;;63.60;56.33;;;3.70;99.90;;;;;;5227354;28;20028;-70
2023/03/21 02:17:16;;;;;;;70.82;58.67;;;3.50;99.90;;;;;;5227290;28;20028;-71
2023/03/21 02:20:07;;;;;;;66.15;58.78;;;3.60;99.90;;;;;;5227223;28;20032;-71
2023/03/21 02:23:19;;;;;;;71.68;61.97;;;3.80;99.90;;;;;;5227300;28;20031;-72
2023/03/21 02:26:09;;;;;;;70.07;62.60;;;3.10;99.90;;;;;;5227213;28;20024;-71
2023/03/21 02:28:56;;;;;;;66.47;58.97;;;3.40;99.90;;;;;;5227095;28;20403;-70
2023/03/21 02:31:33;;;;;;;75.50;64.20;;;3.30;99.90;;;;;;5227198;28;20029;-72
2023/03/21 02:34:07;;;;;;;71.20;63.53;;;3.30;99.90;;;;;;5226946;28;20037;-72
2023/03/21 02:36:57;;;;;;;70.57;61.63;;;3.40;99.90;;;;;;5226914;28;20024;-71
2023/03/21 02:39:37;;;;;;;69.28;62.10;;;3.50;99.90;;;;;;5209019;28;20043;-71
2023/03/21 02:42:16;;;;;;;71.30;61.57;;;3.40;99.90;;;;;;5208492;28;20037;-72
2023/03/21 02:44:56;;;;;;;74.65;63.72;;;3.40;99.90;;;;;;5226988;28;20398;-72
2023/03/21 02:47:38;;;;;;;67.05;60.00;;;2.90;99.90;;;;;;5226662;28;20035;-70
2023/03/21 02:50:25;;;;;;;74.07;65.22;;;3.50;99.90;;;;;;5226799;28;20055;-72
2023/03/21 02:52:57;;;;;;;71.90;64.45;;;3.30;99.90;;;;;;5214434;28;20408;-72
2023/03/21 02:55:31;;;;;;;76.75;66.07;;;3.30;99.90;;;;;;5226323;28;20045;-72
2023/03/21 02:58:05;;;;;;;74.70;64.95;;;3.10;99.90;;;;;;5226554;28;20028;-72
2023/03/21 03:00:36;;;;;;;80.72;67.72;;;3.00;99.90;;;;;;5226316;28;20539;-72
2023/03/21 03:03:07;;;;;;;92.50;71.95;;;2.90;99.90;;;;;;5226415;28;20555;-70
2023/03/21 03:05:58;;;;;;;98.20;71.05;;;2.80;99.90;;;;;;5226525;28;20033;-71
2023/03/21 03:08:41;;;;;;;88.75;62.60;;;3.10;99.90;;;;;;5226614;28;20064;-72
2023/03/21 03:11:29;;;;;;;88.60;69.85;;;3.40;99.90;;;;;;5226655;28;20025;-72
2023/03/21 03:14:28;;;;;;;85.47;69.80;;;3.00;99.90;;;;;;5226689;28;20053;-72
2023/03/21 03:17:17;;;;;;;90.05;68.15;;;2.90;99.90;;;;;;5226852;28;20473;-72
2023/03/21 03:20:09;;;;;;;95.25;70.07;;;3.00;99.90;;;;;;5226535;28;20457;-71
2023/03/21 03:22:47;;;;;;;86.32;71.53;;;2.90;99.90;;;;;;5226488;28;20033;-71
2023/03/21 03:25:35;;;;;;;84.88;68.55;;;3.10;99.90;;;;;;5226631;28;20395;-70
2023/03/21 03:28:07;;;;;;;83.90;67.82;;;3.40;99.90;;;;;;5226645;28;20070;-70
2023/03/21 03:30:39;;;;;;;92.70;68.25;;;3.40;99.90;;;;;;5226145;28;20025;-72
2023/03/21 03:33:10;;;;;;;86.38;69.40;;;3.30;99.90;;;;;;5226452;28;20037;-71
2023/03/21 03:35:42;;;;;;;80.65;67.35;;;3.10;99.90;;;;;;5226239;28;20104;-71
2023/03/21 03:38:13;;;;;;;81.47;66.93;;;2.80;99.90;;;;;;5226244;28;20457;-72
2023/03/21 03:40:48;;;;;;;83.03;67.43;;;3.10;99.90;;;;;;5226254;28;20029;-72
2023/03/21 03:43:31;;;;;;;85.60;65.53;;;3.20;99.90;;;;;;5226379;28;20029;-70
2023/03/21 03:46:13;;;;;;;92.43;66.53;;;3.30;99.90;;;;;;5226352;28;20112;-71
2023/03/21 03:48:51;;;;;;;89.80;66.50;;;3.00;99.90;;;;;;5226249;28;20047;-71
2023/03/21 03:51:31;;;;;;;80.15;69.25;;;3.20;99.90;;;;;;5226170;28;20021;-72
2023/03/21 03:54:28;;;;;;;87.77;67.47;;;2.90;99.90;;;;;;5227181;28;20064;-71
2023/03/21 03:57:00;;;;;;;77.65;65.28;;;3.00;99.90;;;;;;5230352;28;20271;-72
2023/03/21 03:59:35;;;;;;;92.25;69.13;;;3.10;99.90;;;;;;5212162;28;20079;-72
2023/03/21 04:02:06;;;;;;;81.32;64.53;;;3.00;99.90;;;;;;5229701;28;20041;-71
2023/03/21 04:04:37;;;;;;;91.35;70.35;;;3.30;99.90;;;;;;5230045;28;20033;-72
2023/03/21 04:07:08;;;;;;;86.35;68.95;;;3.30;99.90;;;;;;5230076;28;20469;-72
2023/03/21 04:09:38;;;;;;;91.35;69.55;;;3.20;99.90;;;;;;5230005;28;20070;-72
2023/03/21 04:12:09;;;;;;;96.47;72.32;;;2.90;99.90;;;;;;5211944;28;20388;-72
2023/03/21 04:14:40;;;;;;;89.15;68.10;;;2.60;99.90;;;;;;5229808;28;20039;-72
2023/03/21 04:17:11;;;;;;;97.63;74.50;;;2.90;99.90;;;;;;5229708;28;20560;-71
2023/03/21 04:19:42;;;;;;;96.05;75.55;;;2.80;99.90;;;;;;5211871;28;20031;-71
2023/03/21 04:22:13;;;;;;;84.95;68.88;;;2.90;99.90;;;;;;5229682;28;20028;-72
2023/03/21 04:24:44;;;;;;;102.75;73.85;;;3.20;99.90;;;;;;5211790;28;20033;-70
2023/03/21 04:27:15;;;;;;;102.57;80.70;;;2.70;99.90;;;;;;5229458;28;20121;-72
2023/03/21 04:29:45;;;;;;;101.18;78.18;;;2.70;99.90;;;;;;5229603;28;20119;-72
2023/03/21 04:32:24;;;;;;;96.97;74.43;;;2.70;99.90;;;;;;5229414;28;20031;-72
2023/03/21 04:34:55;;;;;;;108.10;77.93;;;3.30;99.90;;;;;;5229486;28;20420;-72
2023/03/21 04:37:26;;;;;;;107.63;79.63;;;2.90;99.90;;;;;;5229468;28;20059;-72
2023/03/21 04:39:57;;;;;;;111.35;77.00;;;2.80;99.90;;;;;;5229261;28;20087;-71
2023/03/21 04:42:28;;;;;;;115.85;79.57;;;3.00;99.90;;;;;;5229401;28;20029;-72
2023/03/21 04:44:59;;;;;;;116.20;80.28;;;2.80;99.90;;;;;;5229299;28;20097;-72
2023/03/21 04:47:30;;;;;;;112.57;78.95;;;2.90;99.90;;;;;;5224748;28;20421;-72
2023/03/21 04:50:00;;;;;;;116.10;79.03;;;3.50;99.90;;;;;;5217161;28;20024;-71
2023/03/21 04:52:31;;;;;;;106.25;71.07;;;3.60;99.90;;;;;;5208507;28;20034;-72
2023/03/21 04:55:02;;;;;;;107.40;72.88;;;3.90;99.90;;;;;;5190528;28;20083;-72
2023/03/21 04:57:33;;;;;;;119.03;78.22;;;3.80;99.90;;;;;;5208305;28;20033;-72
2023/03/21 05:00:10;;;;;;;120.47;79.85;;;3.50;99.90;;;;;;5208303;28;20041;-72
2023/03/21 05:02:41;;;;;;;120.40;80.55;;;3.70;99.90;;;;;;5207812;28;20068;-71
2023/03/21 05:05:12;;;;;;;118.95;79.95;;;3.30;99.90;;;;;;5190021;28;20029;-71
2023/03/21 05:07:43;;;;;;;124.57;79.90;;;3.40;99.90;;;;;;5208156;28;20444;-71
2023/03/21 05:10:14;;;;;;;123.47;78.57;;;3.80;99.90;;;;;;5208099;28;20022;-72
2023/03/21 05:12:45;;;;;;;122.60;80.68;;;4.30;99.90;;;;;;5208102;28;20029;-72
2023/03/21 05:15:16;;;;;;;117.85;79.03;;;4.70;99.90;;;;;;5207994;28;20385;-72
2023/03/21 05:17:47;;;;;;;125.47;81.97;;;4.50;99.90;;;;;;5207998;28;20034;-70
2023/03/21 05:20:18;;;;;;;126.90;83.10;;;4.50;99.90;;;;;;5207922;28;20033;-71
2023/03/21 05:22:50;;;;;;;130.18;84.32;;;4.50;99.90;;;;;;5207957;28;20079;-73
2023/03/21 05:25:34;;;;;;;135.02;85.65;;;4.90;99.90;;;;;;5189994;28;20018;-72
2023/03/21 05:28:06;;;;;;;127.97;83.80;;;5.00;99.90;;;;;;5207636;28;20025;-72
2023/03/21 05:30:37;;;;;;;131.82;90.95;;;4.90;99.90;;;;;;5207270;28;20023;-71
2023/03/21 05:33:08;;;;;;;134.13;91.72;;;4.80;99.90;;;;;;5189751;28;20033;-70
2023/03/21 05:35:39;;;;;;;129.32;88.25;;;4.80;99.90;;;;;;5207431;28;20091;-71
2023/03/21 05:38:10;;;;;;;129.45;93.18;;;5.20;99.90;;;;;;5207526;28;20021;-71
2023/03/21 05:40:45;;;;;;;134.85;97.68;;;5.40;99.90;;;;;;5207381;28;20095;-70
2023/03/21 05:43:16;;;;;;;136.93;103.82;;;5.90;99.90;;;;;;5207453;28;20079;-70
2023/03/21 05:45:47;;;;;;;136.23;102.28;;;6.00;99.90;;;;;;5189633;28;20047;-70
2023/03/21 05:48:18;;;;;;;138.77;105.03;;;6.10;99.90;;;;;;5207535;28;20022;-70
2023/03/21 05:50:49;;;;;;;144.85;104.95;;;5.90;99.90;;;;;;5215794;28;20100;-71
2023/03/21 05:53:20;;;;;;;136.88;104.85;;;5.80;99.90;;;;;;5199381;28;20026;-72
2023/03/21 05:55:50;;;;;;;130.82;102.70;;;5.80;99.90;;;;;;5211616;28;20029;-71
2023/03/21 05:58:21;;;;;;;145.57;103.78;;;5.90;99.90;;;;;;5227782;28;20023;-71
2023/03/21 06:00:52;;;;;;;134.27;97.90;;;6.00;99.90;;;;;;5227495;28;20083;-72
2023/03/21 06:03:23;;;;;;;137.70;97.93;;;6.10;99.90;;;;;;5227583;28;20049;-71
2023/03/21 06:05:53;;;;;;;132.93;96.63;;;6.20;99.90;;;;;;5227671;28;20060;-71
2023/03/21 06:08:24;;;;;;;127.75;96.65;;;6.20;99.90;;;;;;5227717;28;20045;-70
2023/03/21 06:10:55;;;;;;;139.68;102.70;;;6.30;99.90;;;;;;5203836;28;20064;-73
2023/03/21 06:13:26;;;;;;;130.50;100.82;;;6.10;99.90;;;;;;5206949;28;20427;-70
2023/03/21 06:15:57;;;;;;;137.32;104.55;;;6.20;99.90;;;;;;5206677;28;20067;-80
2023/03/21 06:18:27;;;;;;;135.60;102.50;;;6.40;99.90;;;;;;5206390;28;20415;-79
2023/03/21 06:20:59;;;;;;;137.15;108.28;;;6.40;99.90;;;;;;5206782;28;20041;-80
2023/03/21 06:23:29;;;;;;;136.40;107.28;;;6.50;99.90;;;;;;5189221;28;20021;-80
2023/03/21 06:26:00;;;;;;;130.80;99.47;;;6.50;99.90;;;;;;5188939;28;20029;-78
2023/03/21 06:28:31;;;;;;;121.57;96.45;;;7.20;99.90;;;;;;5206752;28;20026;-83
2023/03/21 06:31:02;;;;;;;122.68;96.22;;;7.20;99.90;;;;;;5226375;28;20641;-80
2023/03/21 06:33:33;;;;;;;129.70;100.15;;;7.70;99.90;;;;;;5227151;28;20108;-76
2023/03/21 06:36:04;;;;;;;121.35;96.85;;;8.20;99.90;;;;;;5227164;28;20119;-69
2023/03/21 06:38:36;;;;;;;131.07;96.85;;;8.00;99.90;;;;;;5227133;28;20029;-77
2023/03/21 06:41:08;;;;;;;124.78;94.55;;;7.90;99.90;;;;;;5222312;28;20041;-77
2023/03/21 06:43:39;;;;;;;119.13;88.68;;;8.50;99.90;;;;;;5206525;28;20100;-77
2023/03/21 06:46:10;;;;;;;113.22;89.25;;;8.40;99.90;;;;;;5226928;28;20108;-76
2023/03/21 06:48:43;;;;;;;124.03;92.00;;;8.80;99.90;;;;;;5226949;28;20025;-77
2023/03/21 06:51:15;;;;;;;124.72;93.20;;;8.90;99.90;;;;;;5226756;28;20086;-74
2023/03/21 06:53:45;;;;;;;113.05;87.43;;;9.30;99.90;;;;;;5208972;28;20025;-76
2023/03/21 06:56:16;;;;;;;117.72;89.40;;;9.40;99.90;;;;;;5226756;28;20029;-76
2023/03/21 06:58:47;;;;;;;115.75;88.43;;;9.70;99.90;;;;;;5226780;28;20435;-75
2023/03/21 07:01:18;;;;;;;117.05;86.22;;;9.80;99.90;;;;;;5216992;28;20117;-75
2023/03/21 07:03:49;;;;;;;120.15;85.40;;;10.00;99.90;;;;;;5187963;28;20064;-74
2023/03/21 07:06:20;;;;;;;117.63;87.13;;;10.00;99.90;;;;;;5223386;28;20033;-75
2023/03/21 07:08:51;;;;;;;110.47;81.05;;;10.00;99.90;;;;;;5226907;28;20017;-76
2023/03/21 07:11:23;;;;;;;113.57;83.82;;;10.60;99.90;;;;;;5226822;28;20484;-75
2023/03/21 07:13:54;;;;;;;118.40;84.50;;;10.90;99.90;;;;;;5226622;28;20033;-75
2023/03/21 07:16:24;;;;;;;111.85;84.65;;;11.40;99.90;;;;;;5219819;28;20768;-74
2023/03/21 07:18:55;;;;;;;116.30;87.70;;;11.70;99.90;;;;;;5188207;28;20629;-74
2023/03/21 07:21:26;;;;;;;114.05;93.18;;;11.90;99.90;;;;;;5205850;28;20068;-74
2023/03/21 07:23:57;;;;;;;104.93;86.72;;;12.10;99.90;;;;;;5205872;28;20097;-75
2023/03/21 07:26:28;;;;;;;99.28;85.05;;;12.40;99.90;;;;;;5205731;28;20033;-76
2023/03/21 07:28:59;;;;;;;87.28;75.97;;;12.60;99.90;;;;;;5208257;28;20029;-78
2023/03/21 07:31:29;;;;;;;87.13;75.40;;;12.50;99.90;;;;;;5192372;28;20041;-75
2023/03/21 07:34:00;;;;;;;105.38;88.00;;;12.70;99.90;;;;;;5210080;28;20053;-73
2023/03/21 07:36:31;;;;;;;166.85;151.52;;;12.60;99.90;;;;;;5209983;28;20033;-74
2023/03/21 07:39:03;;;;;;;85.88;70.65;;;13.00;99.90;;;;;;5209882;28;20028;-68
2023/03/21 07:41:34;;;;;;;92.13;82.18;;;13.30;99.90;;;;;;5209935;28;20030;-75
2023/03/21 07:44:04;;;;;;;89.35;76.25;;;12.80;99.90;;;;;;5209862;28;20030;-72
2023/03/21 07:46:35;;;;;;;84.78;71.50;;;13.30;99.90;;;;;;5209719;28;20121;-75
2023/03/21 07:49:07;;;;;;;82.22;73.22;;;13.40;99.90;;;;;;5209610;28;20025;-73
2023/03/21 07:51:38;;;;;;;83.45;73.95;;;13.50;99.90;;;;;;5209743;28;20033;-79
2023/03/21 07:54:09;;;;;;;89.95;74.78;;;14.00;99.90;;;;;;5209573;28;20026;-76
2023/03/21 07:56:40;;;;;;;84.10;68.63;;;13.90;99.90;;;;;;5209583;28;20034;-76
2023/03/21 07:59:11;;;;;;;80.35;64.07;;;14.00;99.90;;;;;;5209289;28;20017;-71
2023/03/21 08:01:42;;;;;;;81.43;64.15;;;14.00;99.90;;;;;;5209231;28;20033;-76
2023/03/21 08:04:12;;;;;;;80.75;63.47;;;14.10;99.90;;;;;;5209423;28;20025;-71
2023/03/21 08:06:43;;;;;;;87.15;70.32;;;14.10;99.90;;;;;;5191410;28;20034;-76
2023/03/21 08:09:14;;;;;;;82.57;63.60;;;14.50;99.90;;;;;;5209460;28;20108;-70
2023/03/21 08:11:45;;;;;;;73.78;59.55;;;14.60;99.90;;;;;;5209341;28;20037;-75
2023/03/21 08:14:16;;;;;;;73.47;58.42;;;14.80;99.90;;;;;;5209084;28;20013;-71
2023/03/21 08:16:46;;;;;;;71.03;57.28;;;14.80;99.90;;;;;;5209272;28;20037;-68
2023/03/21 08:19:20;;;;;;;69.57;50.08;;;15.10;99.90;;;;;;5209138;28;20068;-77
2023/03/21 08:21:51;;;;;;;62.65;47.00;;;14.90;99.90;;;;;;5209212;28;20028;-76
2023/03/21 08:24:22;;;;;;;60.40;49.35;;;15.50;99.90;;;;;;5209125;28;20071;-78
2023/03/21 08:26:53;;;;;;;63.60;49.22;;;15.60;99.90;;;;;;5209286;28;20469;-76
2023/03/21 08:29:24;;;;;;;58.17;46.25;;;15.70;99.90;;;;;;5209071;28;20104;-76
2023/03/21 08:31:55;;;;;;;64.78;48.08;;;15.80;99.90;;;;;;5208826;28;20036;-69
2023/03/21 08:34:26;;;;;;;59.08;47.53;;;16.00;99.90;;;;;;5208746;28;20081;-77
2023/03/21 08:36:56;;;;;;;57.45;42.50;;;16.00;99.90;;;;;;5208481;28;20469;-76
2023/03/21 08:39:27;;;;;;;61.35;44.35;;;15.90;99.90;;;;;;5207816;28;20030;-76
2023/03/21 08:41:58;;;;;;;61.53;46.97;;;16.40;99.90;;;;;;5207997;28;20030;-76
2023/03/21 08:44:29;;;;;;;56.60;41.88;;;16.50;99.90;;;;;;5208647;28;20795;-72
2023/03/21 08:47:00;;;;;;;57.40;44.40;;;16.70;99.90;;;;;;5190873;28;20025;-70
2023/03/21 08:49:31;;;;;;;54.85;44.85;;;16.80;99.90;;;;;;5208640;28;20539;-72
2023/03/21 08:52:02;;;;;;;60.22;43.92;;;17.00;99.90;;;;;;5190735;28;20013;-72
2023/03/21 08:54:33;;;;;;;59.75;44.53;;;16.80;99.90;;;;;;5208424;28;20159;-72
2023/03/21 08:57:03;;;;;;;53.65;44.42;;;17.20;99.90;;;;;;5208309;28;20100;-68
2023/03/21 08:59:34;;;;;;;52.80;41.47;;;17.00;99.90;;;;;;5208010;28;20040;-72
2023/03/21 09:02:06;;;;;;;57.17;49.67;;;17.30;99.90;;;;;;5207750;28;20489;-71
2023/03/21 09:04:37;;;;;;;51.40;40.90;;;17.70;99.90;;;;;;5208201;28;20055;-67
2023/03/21 09:07:11;;;;;;;48.65;41.65;;;17.40;99.90;;;;;;5207852;28;20454;-70
2023/03/21 09:09:46;;;;;;;49.45;38.58;;;17.70;99.90;;;;;;5214784;28;20028;-72
2023/03/21 09:12:18;;;;;;;49.15;36.97;;;17.90;99.90;;;;;;5235224;28;20029;-69
2023/03/21 09:14:49;;;;;;;49.15;33.75;;;17.70;99.90;;;;;;5228677;28;20017;-71
2023/03/21 09:17:25;;;;;;;47.17;34.25;;;18.00;99.90;;;;;;5228546;28;20025;-72
2023/03/21 09:19:59;;;;;;;45.08;35.05;;;17.70;99.90;;;;;;5214804;28;20733;-72
2023/03/21 09:22:30;;;;;;;43.22;35.53;;;18.10;99.90;;;;;;5212255;28;20033;-67
2023/03/21 09:25:01;;;;;;;46.03;35.72;;;18.10;99.90;;;;;;5215969;28;21726;-72
2023/03/21 09:27:32;;;;;;;48.38;39.38;;;18.00;99.90;;;;;;5210421;28;20028;-72
2023/03/21 09:30:05;;;;;;;47.10;35.03;;;18.50;99.90;;;;;;5219959;28;20029;-71
2023/03/21 09:32:36;;;;;;;41.58;33.53;;;18.50;99.90;;;;;;5217008;28;20041;-71
2023/03/21 09:35:07;;;;;;;44.38;35.88;;;18.60;99.90;;;;;;5213061;28;20025;-70
2023/03/21 09:37:41;;;;;;;47.38;34.78;;;18.60;99.90;;;;;;5211793;28;20021;-69
2023/03/21 09:40:27;;;;;;;41.85;35.38;;;18.50;99.90;;;;;;5211206;28;20035;-69
2023/03/21 09:43:24;;;;;;;41.22;31.52;;;18.70;99.90;;;;;;5229448;28;20162;-72
2023/03/21 09:46:06;;;;;;;41.65;31.10;;;18.60;99.90;;;;;;5223831;28;20540;-72
2023/03/21 09:48:50;;;;;;;36.30;30.27;;;18.90;99.90;;;;;;5217950;28;20105;-71
2023/03/21 09:51:22;;;;;;;44.85;37.78;;;19.20;99.90;;;;;;5210463;28;20032;-73
2023/03/21 09:53:56;;;;;;;36.35;32.72;;;19.10;99.90;;;;;;5225654;28;20419;-68
2023/03/21 09:56:27;;;;;;;36.60;31.05;;;19.20;99.90;;;;;;5228028;28;20410;-75
2023/03/21 09:59:00;;;;;;;34.05;29.77;;;19.50;99.90;;;;;;5216429;28;20043;-67
2023/03/21 10:01:33;;;;;;;39.90;35.88;;;19.10;99.90;;;;;;5215194;28;20380;-68
2023/03/21 10:04:06;;;;;;;48.58;42.67;;;19.10;99.90;;;;;;5223634;28;20113;-67
2023/03/21 10:06:41;;;;;;;46.22;41.50;;;18.90;99.90;;;;;;5216924;28;20422;-66
2023/03/21 10:09:22;;;;;;;45.95;41.10;;;19.20;99.90;;;;;;5221179;28;20018;-77
2023/03/21 10:12:03;;;;;;;42.10;34.45;;;19.40;99.90;;;;;;5208623;28;20068;-76
2023/03/21 10:14:37;;;;;;;42.05;37.67;;;19.60;99.90;;;;;;5215890;28;20022;-68
2023/03/21 10:17:34;;;;;;;56.58;51.72;;;19.50;99.90;;;;;;5207894;28;20090;-71
2023/03/21 10:20:21;;;;;;;35.47;28.30;;;18.90;99.90;;;;;;5213885;28;20045;-79
2023/03/21 10:22:55;;;;;;;33.58;28.48;;;19.50;99.90;;;;;;5207725;28;20112;-68
2023/03/21 10:25:37;;;;;;;41.45;37.63;;;19.80;99.90;;;;;;5224178;28;20013;-78
2023/03/21 10:28:14;;;;;;;49.10;44.75;;;19.20;99.90;;;;;;5206570;28;20040;-68
2023/03/21 10:30:50;;;;;;;34.95;31.10;;;19.20;99.90;;;;;;5213447;28;20030;-76
2023/03/21 10:33:30;;;;;;;35.22;31.48;;;19.40;99.90;;;;;;5191191;28;21848;-78
2023/03/21 10:36:05;;;;;;;32.50;27.85;;;19.50;99.90;;;;;;5208177;28;20057;-76
2023/03/21 10:38:45;;;;;;;34.35;30.10;;;19.50;99.90;;;;;;5216805;28;20040;-77
2023/03/21 10:41:15;;;;;;;34.92;29.27;;;19.20;99.90;;;;;;5213593;28;20503;-68
2023/03/21 10:44:16;;;;;;;49.08;44.28;;;19.20;99.90;;;;;;5218359;28;20097;-69
2023/03/21 10:46:51;;;;;;;30.67;27.52;;;19.40;99.90;;;;;;5216319;28;20028;-68
2023/03/21 10:49:24;;;;;;;31.60;26.70;;;19.30;99.90;;;;;;5215201;28;20032;-75
2023/03/21 10:51:59;;;;;;;30.67;25.48;;;19.50;99.90;;;;;;5224556;28;20033;-74
2023/03/21 10:54:32;;;;;;;46.97;43.00;;;19.40;99.90;;;;;;5225047;28;20029;-68
2023/03/21 10:57:21;;;;;;;30.23;27.00;;;19.30;99.90;;;;;;5217862;28;20107;-67
2023/03/21 10:59:57;;;;;;;35.30;31.50;;;18.80;99.90;;;;;;5224929;28;20037;-67
2023/03/21 11:02:32;;;;;;;34.40;28.55;;;19.30;99.90;;;;;;5215639;28;20124;-67
2023/03/21 11:05:21;;;;;;;36.40;30.23;;;19.60;99.90;;;;;;5214927;28;20040;-68
2023/03/21 11:08:11;;;;;;;31.35;26.55;;;19.50;99.90;;;;;;5221936;28;20059;-67
2023/03/21 11:11:04;;;;;;;32.03;28.50;;;19.20;99.90;;;;;;5211904;28;20084;-76
2023/03/21 11:13:43;;;;;;;31.48;26.95;;;19.20;99.90;;;;;;5212156;28;20363;-81
2023/03/21 11:16:30;;;;;;;34.67;31.23;;;19.40;99.90;;;;;;5213441;28;20040;-81
2023/03/21 11:19:11;;;;;;;36.67;26.85;;;19.80;99.90;;;;;;5205549;28;20026;-78
2023/03/21 11:21:43;;;;;;;29.40;25.65;;;19.90;99.90;;;;;;5205018;28;20080;-82
2023/03/21 11:24:17;;;;;;;31.13;25.98;;;19.70;99.90;;;;;;5204646;28;20021;-81
2023/03/21 11:26:50;;;;;;;28.27;25.30;;;19.60;99.90;;;;;;5205342;28;20082;-68
2023/03/21 11:29:31;;;;;;;29.02;24.65;;;19.60;99.90;;;;;;5205399;28;20022;-79
2023/03/21 11:32:22;;;;;;;34.97;24.92;;;19.50;99.90;;;;;;5205314;28;20084;-74
2023/03/21 11:35:00;;;;;;;27.77;23.80;;;19.20;99.90;;;;;;5204560;28;20025;-79
2023/03/21 11:37:33;;;;;;;29.15;24.23;;;19.50;99.90;;;;;;5205112;28;20087;-81
2023/03/21 11:40:28;;;;;;;32.80;23.88;;;19.60;99.90;;;;;;5205715;28;20037;-80
2023/03/21 11:43:16;;;;;;;30.40;27.42;;;19.40;99.90;;;;;;5205402;28;20022;-79
2023/03/21 11:46:05;;;;;;;34.95;24.88;;;19.10;99.90;;;;;;5205833;28;20036;-81
2023/03/21 11:48:44;;;;;;;30.98;27.63;;;19.00;99.90;;;;;;5188073;28;20473;-80
2023/03/21 11:51:36;;;;;;;31.98;27.90;;;19.60;99.90;;;;;;5205997;28;20463;-80
2023/03/21 11:54:15;;;;;;;29.88;25.80;;;19.20;99.90;;;;;;5205622;28;20033;-81
2023/03/21 11:57:07;;;;;;;29.50;26.65;;;19.40;99.90;;;;;;5205754;28;20157;-80
2023/03/21 11:59:51;;;;;;;28.20;25.33;;;19.00;99.90;;;;;;5187967;28;20482;-81
2023/03/21 12:02:53;;;;;;;29.20;26.30;;;18.50;99.90;;;;;;5205261;28;20049;-80
2023/03/21 12:05:35;;;;;;;29.65;26.98;;;18.10;99.90;;;;;;5205833;28;20057;-79
2023/03/21 12:08:06;;;;;;;31.40;27.50;;;17.90;99.90;;;;;;5205648;28;20084;-80
2023/03/21 12:10:47;;;;;;;29.65;26.63;;;18.00;99.90;;;;;;5205592;28;20412;-81
2023/03/21 12:13:21;;;;;;;35.05;28.45;;;17.90;99.90;;;;;;5187880;28;20030;-80
2023/03/21 12:16:07;;;;;;;30.77;27.63;;;18.40;99.90;;;;;;5207737;28;20025;-80
2023/03/21 12:19:04;;;;;;;34.53;30.45;;;18.10;99.90;;;;;;5209345;28;20034;-80
2023/03/21 12:21:56;;;;;;;32.78;29.38;;;18.10;99.90;;;;;;5209144;28;20044;-77
2023/03/21 12:24:55;;;;;;;33.97;30.25;;;18.10;99.90;;;;;;5209365;28;20029;-80
2023/03/21 12:27:52;;;;;;;33.38;30.10;;;18.00;99.90;;;;;;5209338;28;20485;-80
2023/03/21 12:30:30;;;;;;;31.65;28.52;;;17.20;99.90;;;;;;5209166;28;20033;-79
2023/03/21 12:33:21;;;;;;;33.92;30.33;;;16.90;99.90;;;;;;5209123;28;20114;-79
2023/03/21 12:36:24;;;;;;;39.10;35.15;;;16.80;99.90;;;;;;5209098;28;20033;-80
2023/03/21 12:39:20;;;;;;;42.75;39.05;;;16.50;99.90;;;;;;5208892;28;20041;-69
2023/03/21 12:41:57;;;;;;;47.58;43.17;;;16.50;99.90;;;;;;5191158;28;20045;-79
2023/03/21 12:44:34;;;;;;;39.40;36.00;;;16.10;99.90;;;;;;5208984;28;20085;-79
2023/03/21 12:47:09;;;;;;;46.40;42.05;;;16.30;99.90;;;;;;5208788;28;20029;-79
2023/03/21 12:50:03;;;;;;;44.58;39.80;;;16.10;99.90;;;;;;5208723;28;20163;-79
2023/03/21 12:52:39;;;;;;;33.00;29.88;;;16.80;99.90;;;;;;5208665;28;20029;-80
2023/03/21 12:55:27;;;;;;;40.90;35.80;;;17.00;99.90;;;;;;5208594;28;20132;-77
2023/03/21 12:58:12;;;;;;;34.05;30.38;;;17.20;99.90;;;;;;5208479;28;20026;-79
2023/03/21 13:00:53;;;;;;;38.88;34.97;;;17.80;99.90;;;;;;5208337;28;20086;-68
2023/03/21 13:03:38;;;;;;;30.85;27.88;;;17.50;99.90;;;;;;5208376;28;20074;-80
2023/03/21 13:06:12;;;;;;;33.83;29.95;;;17.60;99.90;;;;;;5208344;28;20036;-79
2023/03/21 13:08:48;;;;;;;34.08;30.52;;;17.40;99.90;;;;;;5208398;28;20045;-79
2023/03/21 13:11:23;;;;;;;40.67;36.03;;;17.30;99.90;;;;;;5208443;28;20884;-79